Latest Weather Observations for Munglinup West

IDW60801

Issued at 6:05 am WST Tuesday 23 September 2014 (issued every 30 minutes, with the page automatically refreshed every 10 minutes)

About weather observations | Map of weather stations | Latest weather observations for WA | Other Formats
Station Details ID: 012044 Name: MUNGLINUP WEST Lat: -33.55 Lon: 120.70 Height: 220.0 m
Data from the previous 72 hours. | See also: Recent months at Munglinup West
Date/Time
WST
Temp
°C
App
Temp
°C
Dew
Point
Rel
Hum
%
Delta-T
°C
Wind Press
QNH
hPa
Press
MSL
hPa
Rain
since 9 am
mm
Dir
 
Spd
km/h
Gust
km/h
Spd
kts
Gust
kts
23/06:00am 8.3 5.8 8.3 100 0.0 W 11 15 6 8 1023.2 1023.1 0.6
23/05:30am 8.2 6.1 8.2 100 0.0 W 9 11 5 6 1023.0 1022.9 0.6
23/05:00am 8.2 6.1 8.2 100 0.0 W 9 15 5 8 1022.8 1022.7 0.6
23/04:30am 8.2 5.7 8.2 100 0.0 W 11 17 6 9 1022.6 1022.5 0.6
23/04:00am 8.1 5.6 8.1 100 0.0 W 11 15 6 8 1022.2 1022.1 0.6
23/03:30am 8.1 6.0 8.1 100 0.0 W 9 17 5 9 1022.1 1022.0 0.6
23/03:00am 8.0 5.5 8.0 100 0.0 W 11 17 6 9 1021.9 1021.8 0.6
23/02:30am 8.0 5.8 8.0 100 0.0 W 9 13 5 7 1021.8 1021.7 0.6
23/02:00am 7.8 5.2 7.8 100 0.0 WSW 11 17 6 9 1021.9 1021.8 0.6
23/01:30am 7.6 4.6 7.6 100 0.0 W 13 19 7 10 1022.1 1022.0 0.6
23/01:00am 7.3 5.0 7.3 100 0.0 W 9 17 5 9 1022.4 1022.3 0.6
23/12:30am 7.2 4.5 7.2 100 0.0 W 11 15 6 8 1022.5 1022.4 0.4
23/12:00am 7.3 4.6 7.3 100 0.0 W 11 15 6 8 1022.6 1022.5 0.4
 
Date/Time
WST
Temp
°C
App
Temp
°C
Dew
Point
Rel
Hum
%
Delta-T
°C
Wind Press
QNH
hPa
Press
MSL
hPa
Rain
since 9 am
mm
Dir
 
Spd
km/h
Gust
km/h
Spd
kts
Gust
kts
22/11:30pm 6.9 4.5 6.8 99 0.0 W 9 13 5 7 1022.7 1022.6 0.4
22/11:00pm 6.9 4.8 6.6 98 0.1 W 7 13 4 7 1022.8 1022.7 0.4
22/10:30pm 6.9 4.0 6.6 98 0.1 W 11 17 6 9 1023.1 1023.0 0.4
22/10:00pm 6.9 5.0 6.5 97 0.2 W 6 6 3 3 1023.2 1023.1 0.4
22/09:30pm 7.0 4.5 6.6 97 0.2 WSW 9 11 5 6 1023.2 1023.1 0.4
22/09:00pm 7.7 4.6 7.3 97 0.2 WSW 13 19 7 10 1023.4 1023.3 0.4
22/08:30pm 7.1 4.6 6.4 95 0.3 W 9 13 5 7 1023.2 1023.1 0.4
22/08:00pm 7.2 4.2 6.1 93 0.5 WSW 11 15 6 8 1023.2 1023.1 0.4
22/07:30pm 7.4 5.3 5.7 89 0.8 SW 6 7 3 4 1022.7 1022.6 0.4
22/07:00pm 8.4 4.3 6.0 85 1.1 SSW 17 26 9 14 1022.4 1022.3 0.4
22/06:30pm 8.9 3.5 6.3 84 1.2 WSW 24 33 13 18 1022.0 1021.9 0.4
22/06:00pm 8.3 5.3 5.9 85 1.1 S 11 15 6 8 1021.5 1021.4 0.4
22/05:30pm 9.1 4.6 6.0 81 1.4 SSW 19 26 10 14 1021.0 1020.9 0.4
22/05:00pm 9.7 5.2 5.9 77 1.8 SSW 19 28 10 15 1020.3 1020.2 0.4
22/04:30pm 8.9 1.9 6.2 83 1.3 SSW 32 57 17 31 1020.3 1020.2 0.4
22/04:26pm 10.0 3.7 5.8 75 2.0 SSW 28 57 15 31 1020.1 1020.0 0.2
22/04:00pm 11.8 5.4 7.1 73 2.3 SSW 30 41 16 22 1019.4 1019.3 0.2
22/03:30pm 12.8 5.1 5.5 61 3.4 SSW 35 56 19 30 1018.7 1018.6 0.2
22/03:00pm 13.5 7.1 5.2 57 3.9 SSW 28 46 15 25 1018.0 1017.9 0.2
22/02:30pm 13.8 6.5 4.7 54 4.3 S 32 48 17 26 1017.6 1017.5 0.2
22/02:00pm 12.8 4.9 4.3 56 3.9 S 35 54 19 29 1017.1 1017.0 0.0
22/01:53pm 13.9 6.7 5.0 55 4.2 SSW 32 52 17 28 1016.9 1016.8 0.0
22/01:30pm 13.8 6.4 4.9 55 4.2 SSW 33 48 18 26 1016.8 1016.7 0.0
22/01:20pm 13.6 6.3 4.7 55 4.2 S 32 52 17 28 1016.8 1016.7 0.0
22/01:00pm 13.9 5.9 5.5 57 4.0 SSW 37 50 20 27 1016.6 1016.5 0.0
22/12:30pm 13.7 5.9 6.6 62 3.5 SSW 37 52 20 28 1016.4 1016.3 0.0
22/12:08pm 14.5 7.2 7.3 62 3.6 S 35 54 19 29 1016.4 1016.3 0.0
22/12:00pm 14.3 7.4 7.1 62 3.6 S 33 46 18 25 1016.3 1016.2 0.0
22/11:42am 13.0 6.4 8.5 74 2.3 SSW 33 52 18 28 1016.2 1016.1 0.0
22/11:30am 13.8 6.8 6.7 62 3.5 S 33 46 18 25 1016.1 1016.0 0.0
22/11:00am 14.5 7.8 8.0 65 3.3 S 33 52 18 28 1015.8 1015.6 0.0
22/10:42am 13.7 6.3 8.3 70 2.7 S 37 63 20 34 1015.8 1015.6 0.0
22/10:30am 14.4 6.0 7.5 63 3.4 SSW 41 59 22 32 1015.7 1015.5 0.0
22/10:00am 13.6 5.9 6.9 64 3.3 S 37 59 20 32 1015.5 1015.3 0.0
22/09:33am 12.1 5.8 7.4 73 2.3 S 30 52 16 28 1015.4 1015.2 0.0
22/09:30am 11.9 5.6 7.2 73 2.3 S 30 44 16 24 1015.4 1015.2 0.0
22/09:07am 11.8 5.6 7.9 77 1.9 S 30 50 16 27 1015.0 1014.8 0.0
22/09:00am 11.8 5.8 8.5 80 1.6 S 30 46 16 25 1014.8 1014.7 13.4
22/08:30am 12.1 6.1 8.8 80 1.7 S 30 44 16 24 1014.3 1014.2 13.4
22/08:00am 11.0 5.5 9.1 88 1.0 S 28 41 15 22 1014.0 1013.9 13.4
22/07:30am 10.8 6.5 10.8 100 0.0 S 24 37 13 20 1013.6 1013.5 13.4
22/07:00am 10.3 6.8 10.3 100 0.0 SSW 19 26 10 14 1013.1 1013.0 13.4
22/06:30am 10.2 5.4 10.2 100 0.0 S 26 39 14 21 1012.5 1012.4 13.2
22/06:00am 10.2 6.1 10.2 100 0.0 S 22 39 12 21 1011.8 1011.6 12.6
22/05:38am 10.6 5.1 10.6 100 0.0 S 30 48 16 26 1011.3 1011.1 11.8
22/05:30am 10.5 5.0 10.5 100 0.0 S 30 44 16 24 1011.1 1010.9 11.6
22/05:00am 10.8 5.4 10.8 100 0.0 S 30 41 16 22 1010.6 1010.4 10.2
22/04:30am 10.9 6.3 10.9 100 0.0 SSW 26 39 14 21 1009.7 1009.6 9.6
22/04:00am 10.9 5.1 10.9 100 0.0 S 32 43 17 23 1008.8 1008.7 8.8
22/03:53am 11.0 6.0 11.0 100 0.0 SSW 28 52 15 28 1009.3 1009.2 8.8
22/03:30am 11.3 8.1 11.3 100 0.0 SSW 19 28 10 15 1010.2 1010.0 8.4
22/03:00am 11.3 7.9 11.3 100 0.0 SSW 20 28 11 15 1010.2 1010.0 7.2
22/02:30am 11.4 7.3 11.4 100 0.0 SSW 24 35 13 19 1009.1 1009.0 6.0
22/02:00am 11.9 8.9 11.9 100 0.0 SSW 19 26 10 14 1009.2 1009.1 4.8
22/01:30am 11.7 10.5 11.7 100 0.0 WNW 9 15 5 8 1008.8 1008.7 4.2
22/01:00am 11.8 10.7 11.8 100 0.0 NW 9 11 5 6 1009.7 1009.6 2.6
22/12:30am 11.9 11.2 11.9 100 0.0 NW 7 11 4 6 1009.8 1009.7 2.4
22/12:00am 11.9 10.7 11.7 99 0.1 WNW 9 13 5 7 1010.3 1010.1 2.2
 
Date/Time
WST
Temp
°C
App
Temp
°C
Dew
Point
Rel
Hum
%
Delta-T
°C
Wind Press
QNH
hPa
Press
MSL
hPa
Rain
since 9 am
mm
Dir
 
Spd
km/h
Gust
km/h
Spd
kts
Gust
kts
21/11:30pm 12.1 11.5 11.8 98 0.2 W 6 7 3 4 1010.5 1010.3 1.6
21/11:00pm 12.1 10.5 11.5 96 0.3 WSW 11 17 6 9 1009.8 1009.7 1.4
21/10:30pm 12.2 11.5 11.3 94 0.5 WSW 6 9 3 5 1010.4 1010.2 1.2
21/10:00pm 12.5 10.8 11.1 91 0.7 WSW 11 17 6 9 1011.0 1010.8 0.4
21/09:30pm 13.4 10.9 9.6 78 2.0 W 13 20 7 11 1011.4 1011.2 0.2
21/09:00pm 14.8 12.8 8.5 66 3.2 WSW 9 13 5 7 1011.0 1010.8 0.0
21/08:30pm 14.7 11.9 8.4 66 3.2 W 13 17 7 9 1010.8 1010.6 0.0
21/08:00pm 15.2 10.2 8.2 63 3.6 WSW 24 33 13 18 1010.0 1009.9 0.0
21/07:30pm 15.8 10.5 8.3 61 3.8 WSW 26 37 14 20 1010.4 1010.2 0.0
21/07:00pm 16.4 9.9 8.1 58 4.3 WSW 32 41 17 22 1009.7 1009.6 0.0
21/06:30pm 17.4 10.4 8.5 56 4.6 WSW 35 50 19 27 1008.9 1008.8 0.0
21/06:00pm 18.8 12.7 9.6 55 4.9 WSW 32 43 17 23 1007.5 1007.3 0.0
21/05:32pm 19.9 12.6 11.4 58 4.7 SW 41 61 22 33 1006.1 1005.9 0.0
21/05:30pm 19.9 12.1 11.1 57 4.9 SW 43 61 23 33 1006.2 1006.0 0.0
21/05:28pm 20.0 12.1 11.5 58 4.7 SW 44 67 24 36 1005.9 1005.7 0.0
21/05:15pm 22.6 11.8 11.4 49 6.3 SW 59 82 32 44 1003.8 1003.6 0.0
21/05:13pm 26.7 15.7 9.1 33 9.7 W 57 82 31 44 1003.9 1003.7 0.0
21/05:12pm 30.0 21.3 3.9 19 13.5 NW 39 82 21 44 1003.7 1003.5 0.0
21/05:00pm 30.4 22.5 0.9 15 14.6 NW 32 52 17 28 1002.4 1002.2 0.0
21/04:35pm 31.4 22.3 -0.3 13 15.4 NNW 37 57 20 31 1001.8 1001.6 0.0
21/04:30pm 31.9 22.4 -1.0 12 15.8 NNW 39 54 21 29 1001.7 1001.5 0.0
21/04:00pm 32.0 21.7 -0.9 12 15.9 NNW 43 74 23 40 1001.5 1001.3 0.0
21/03:30pm 32.2 21.6 -2.0 11 16.2 NNW 44 63 24 34 1001.4 1001.2 0.0
21/03:00pm 33.6 21.8 -2.2 10 17.1 N 50 74 27 40 1001.4 1001.2 0.0
21/02:30pm 34.5 22.2 -2.9 9 17.7 NNW 52 87 28 47 1001.6 1001.4 0.0
21/02:00pm 33.6 23.3 -0.9 11 16.9 N 43 70 23 38 1001.8 1001.6 0.0
21/01:30pm 34.0 22.4 -0.6 11 17.0 N 50 74 27 40 1002.5 1002.3 0.0
21/01:26pm 33.9 23.5 -2.0 10 17.2 N 43 69 23 37 1002.7 1002.5 0.0
21/01:25pm 34.1 24.1 -1.8 10 17.3 NNW 41 59 22 32 1002.7 1002.5 0.0
21/01:14pm 33.9 18.9 -2.0 10 17.2 N 67 87 36 47 1003.0 1002.8 0.0
21/01:00pm 33.4 22.7 0.1 12 16.5 N 46 70 25 38 1003.3 1003.1 0.0
21/12:30pm 33.7 22.7 0.4 12 16.6 NNW 48 70 26 38 1004.2 1004.1 0.0
21/12:00pm 32.8 22.8 0.8 13 16.0 NNW 43 65 23 35 1005.0 1004.9 0.0
21/11:30am 32.4 23.1 0.5 13 15.8 NNW 39 59 21 32 1005.9 1005.7 0.0
21/11:00am 31.9 23.3 0.1 13 15.6 N 35 61 19 33 1006.7 1006.5 0.0
21/10:57am 32.0 23.4 0.2 13 15.6 N 35 59 19 32 1006.7 1006.5 0.0
21/10:30am 30.4 21.6 -1.1 13 15.0 N 35 52 19 28 1007.4 1007.2 0.0
21/10:00am 29.1 20.3 -1.1 14 14.2 N 35 54 19 29 1008.1 1008.0 0.0
21/09:30am 28.4 20.1 -1.6 14 13.9 N 32 52 17 28 1009.0 1008.9 0.0
21/09:28am 28.1 19.8 -1.9 14 13.8 N 32 52 17 28 1009.0 1008.9 0.0
21/09:00am 26.4 18.0 -1.4 16 12.8 N 33 48 18 26 1009.6 1009.5 0.0
21/08:30am 25.1 17.7 -0.9 18 11.9 N 28 46 15 25 1010.2 1010.0 0.0
21/08:00am 22.3 16.5 2.4 27 9.5 NNE 22 32 12 17 1010.8 1010.6 0.0
21/07:30am 19.8 14.3 1.7 30 8.4 NNE 20 32 11 17 1011.2 1011.0 0.0
21/07:00am 17.8 12.3 1.7 34 7.3 NNE 20 30 11 16 1011.3 1011.1 0.0
21/06:30am 16.7 11.4 1.6 36 6.8 NNE 19 26 10 14 1011.5 1011.3 0.0
21/06:00am 16.0 10.1 1.7 38 6.4 NE 22 28 12 15 1011.3 1011.1 0.0
21/05:30am 16.0 10.7 2.1 39 6.3 NE 19 24 10 13 1011.6 1011.4 0.0
21/05:00am 15.4 10.2 2.6 42 5.8 NE 19 22 10 12 1011.9 1011.7 0.0
21/04:30am 15.2 10.8 2.7 43 5.7 NE 15 19 8 10 1012.2 1012.1 0.0
21/04:00am 15.3 11.3 2.8 43 5.7 NE 13 17 7 9 1012.3 1012.2 0.0
21/03:30am 15.3 12.0 2.5 42 5.8 NNE 9 13 5 7 1012.6 1012.5 0.0
21/03:00am 15.8 12.5 2.6 41 6.0 NNE 9 13 5 7 1012.8 1012.7 0.0
21/02:30am 17.2 13.9 2.4 37 6.8 N 9 13 5 7 1013.2 1013.1 0.0
21/02:00am 17.9 14.1 1.8 34 7.3 N 11 17 6 9 1013.5 1013.4 0.0
21/01:30am 19.8 15.2 1.7 30 8.4 N 15 24 8 13 1013.6 1013.5 0.0
21/01:00am 20.4 13.8 1.8 29 8.6 NNW 26 37 14 20 1013.6 1013.5 0.0
21/12:43am 20.4 13.7 1.3 28 8.8 NW 26 35 14 19 1014.0 1013.9 0.0
21/12:30am 20.9 13.8 1.2 27 9.1 NNE 28 39 15 21 1011.9 1011.7 0.0
21/12:00am 21.0 14.0 1.8 28 9.0 NE 28 41 15 22 1011.5 1011.3 0.0
 
Date/Time
WST
Temp
°C
App
Temp
°C
Dew
Point
Rel
Hum
%
Delta-T
°C
Wind Press
QNH
hPa
Press
MSL
hPa
Rain
since 9 am
mm
Dir
 
Spd
km/h
Gust
km/h
Spd
kts
Gust
kts
20/11:30pm 21.3 14.2 1.6 27 9.2 NE 28 39 15 21 1011.9 1011.7 0.0
20/11:00pm 21.7 14.6 1.4 26 9.5 NE 28 39 15 21 1012.4 1012.3 0.0
20/10:30pm 21.3 14.7 2.1 28 9.0 NE 26 33 14 18 1013.0 1012.9 0.0
20/10:00pm 20.9 14.8 2.7 30 8.6 NE 24 32 13 17 1013.5 1013.4 0.0
20/09:30pm 21.3 15.3 3.5 31 8.6 NE 24 32 13 17 1014.1 1014.0 0.0
20/09:00pm 21.0 15.8 3.7 32 8.4 NE 20 26 11 14 1014.4 1014.3 0.0
20/08:30pm 20.7 15.8 4.3 34 8.0 NE 19 24 10 13 1014.7 1014.6 0.0
20/08:00pm 21.0 16.0 4.6 34 8.1 NE 20 26 11 14 1014.8 1014.7 0.0
20/07:30pm 21.7 17.0 5.2 34 8.3 NE 19 24 10 13 1014.6 1014.5 0.0
20/07:00pm 21.4 17.1 5.3 35 8.1 NE 17 22 9 12 1014.4 1014.3 0.0
20/06:30pm 22.4 18.1 5.4 33 8.6 NE 17 22 9 12 1014.2 1014.1 0.0
20/06:00pm 24.8 20.5 3.5 25 10.6 NNE 15 20 8 11 1014.0 1013.9 0.0
20/05:30pm 27.3 22.6 3.1 21 12.1 NNE 17 24 9 13 1014.1 1014.0 0.0
20/05:00pm 28.9 22.7 2.2 18 13.3 N 24 35 13 19 1014.2 1014.1 0.0
20/04:30pm 29.6 23.5 2.8 18 13.5 N 24 37 13 20 1014.3 1014.2 0.0
20/04:00pm 30.0 24.0 3.1 18 13.7 N 24 37 13 20 1014.6 1014.5 0.0
20/03:30pm 30.2 24.4 2.5 17 14.0 N 22 35 12 19 1014.7 1014.6 0.0
20/03:00pm 30.6 24.6 3.6 18 13.9 NNE 24 35 13 19 1015.1 1014.9 0.0
20/02:30pm 30.4 24.9 4.2 19 13.6 NNE 22 35 12 19 1015.6 1015.4 0.0
20/02:00pm 29.4 23.7 4.8 21 12.8 NNE 24 43 13 23 1015.9 1015.8 0.0
20/01:30pm 29.6 24.6 6.3 23 12.5 NNE 22 37 12 20 1016.4 1016.3 0.0
20/01:00pm 28.4 23.4 8.1 28 11.1 NNE 24 39 13 21 1016.9 1016.8 0.0
20/12:30pm 27.6 22.2 8.0 29 10.7 NNE 26 37 14 20 1017.4 1017.3 0.0
20/12:00pm 27.1 21.8 8.5 31 10.2 NNE 26 37 14 20 1017.9 1017.8 0.0
20/11:30am 25.4 19.3 8.4 34 9.2 NNE 30 44 16 24 1018.6 1018.5 0.0
20/11:00am 24.9 19.2 8.4 35 8.9 NNE 28 41 15 22 1019.1 1019.0 0.0
20/10:30am 23.4 17.7 8.3 38 8.1 NNE 28 39 15 21 1019.6 1019.6 0.0
20/10:00am 21.6 16.1 9.2 45 6.7 NNE 28 37 15 20 1020.4 1020.3 0.0
20/09:30am 19.2 14.3 9.9 55 5.0 NNE 26 35 14 19 1020.9 1020.8 0.0
20/09:00am 17.2 13.4 11.0 67 3.4 NNE 22 32 12 17 1021.5 1021.4 0.4
20/08:30am 15.1 11.6 12.1 82 1.6 NNE 22 32 12 17 1021.7 1021.6 0.4
20/08:00am 12.9 9.3 12.9 100 0.0 NNE 24 37 13 20 1021.9 1021.8 0.4
20/07:30am 11.1 6.9 11.1 100 0.0 NNE 24 37 13 20 1022.0 1021.9 0.4
20/07:00am 9.9 5.7 9.9 100 0.0 NNE 22 32 12 17 1022.0 1021.9 0.4
20/06:30am 9.3 4.6 9.3 100 0.0 NNE 24 32 13 17 1021.7 1021.6 0.4

Other Formats:

Comma delimited format used in spreadsheet applications
http://www.bom.gov.au/fwo/IDW60801/IDW60801.95644.axf

JavaScript Object Notation format (JSON) in row-major order
http://www.bom.gov.au/fwo/IDW60801/IDW60801.95644.json